Terminal Aerodrome Forecast
Issued by NWS

Home | Current Version | Previous Version | Text Only | Print | Product List | Glossary On
Versions: 1 2 3 4 5 6 7 8 9 10 11 12 13 14 15 16
000
FTUS42 KMLB 202351
TAFLEE
TAF
KLEE 202351Z 2100/2124 VRB03KT P6SM FEW060 BKN100
      TEMPO 2100/2101 -RA BKN060
     FM210800 VRB03KT 4SM BR BKN010
     FM211400 32005KT P6SM SCT015 BKN150
     FM211800 36005KT P6SM SCT040 BKN150=

USA.gov is the U.S. government's official web portal to all federal, state and local government web resources and services.